sensor_id;sensor_type;location;lat;lon;timestamp;pressure;altitude;pressure_sealevel;temperature;humidity
40013;BME280;37387;42.672;23.334;2023-04-23T00:03:32;943.6;;;8.0;100.0
40013;BME280;37387;42.672;23.334;2023-04-23T00:07:32;943.6;;;7.9;100.0
40013;BME280;37387;42.672;23.334;2023-04-23T00:09:32;943.5;;;7.8;100.0
40013;BME280;37387;42.672;23.334;2023-04-23T00:14:32;943.5;;;7.7;100.0
40013;BME280;37387;42.672;23.334;2023-04-23T00:16:32;943.5;;;7.6;100.0
40013;BME280;37387;42.672;23.334;2023-04-23T00:28:32;943.7;;;7.5;100.0
40013;BME280;37387;42.672;23.334;2023-04-23T00:30:32;943.6;;;7.4;100.0
40013;BME280;37387;42.672;23.334;2023-04-23T00:37:32;943.6;;;7.5;100.0
40013;BME280;37387;42.672;23.334;2023-04-23T00:41:32;943.5;;;7.4;100.0
40013;BME280;37387;42.672;23.334;2023-04-23T00:43:32;943.5;;;7.5;100.0
40013;BME280;37387;42.672;23.334;2023-04-23T00:54:32;943.5;;;7.4;100.0
40013;BME280;37387;42.672;23.334;2023-04-23T00:58:32;943.6;;;7.3;100.0
40013;BME280;37387;42.672;23.334;2023-04-23T01:08:32;943.6;;;7.2;100.0
40013;BME280;37387;42.672;23.334;2023-04-23T01:14:32;943.6;;;7.1;100.0
40013;BME280;37387;42.672;23.334;2023-04-23T01:19:32;943.6;;;7.2;100.0
40013;BME280;37387;42.672;23.334;2023-04-23T01:21:32;943.6;;;7.1;100.0
40013;BME280;37387;42.672;23.334;2023-04-23T01:33:32;943.6;;;7.0;100.0
40013;BME280;37387;42.672;23.334;2023-04-23T01:41:32;943.6;;;6.9;100.0
40013;BME280;37387;42.672;23.334;2023-04-23T01:43:32;943.6;;;6.8;100.0
40013;BME280;37387;42.672;23.334;2023-04-23T01:46:32;943.6;;;6.7;100.0
40013;BME280;37387;42.672;23.334;2023-04-23T01:47:32;943.6;;;6.8;100.0
40013;BME280;37387;42.672;23.334;2023-04-23T01:50:32;943.6;;;6.7;100.0
40013;BME280;37387;42.672;23.334;2023-04-23T01:57:32;943.7;;;6.6;100.0
40013;BME280;37387;42.672;23.334;2023-04-23T02:03:32;943.7;;;6.5;100.0
40013;BME280;37387;42.672;23.334;2023-04-23T02:08:32;943.6;;;6.4;100.0
40013;BME280;37387;42.672;23.334;2023-04-23T02:18:32;943.7;;;6.3;100.0
40013;BME280;37387;42.672;23.334;2023-04-23T02:22:32;943.7;;;6.2;100.0
40013;BME280;37387;42.672;23.334;2023-04-23T02:30:32;943.7;;;6.1;100.0
40013;BME280;37387;42.672;23.334;2023-04-23T02:33:32;943.7;;;6.0;100.0
40013;BME280;37387;42.672;23.334;2023-04-23T02:35:32;943.7;;;6.1;100.0
40013;BME280;37387;42.672;23.334;2023-04-23T02:40:32;943.7;;;6.2;100.0
40013;BME280;37387;42.672;23.334;2023-04-23T02:44:32;943.7;;;6.1;100.0
40013;BME280;37387;42.672;23.334;2023-04-23T02:52:32;943.7;;;6.2;100.0
40013;BME280;37387;42.672;23.334;2023-04-23T02:53:32;943.7;;;6.1;100.0
40013;BME280;37387;42.672;23.334;2023-04-23T03:01:32;943.7;;;6.0;100.0
40013;BME280;37387;42.672;23.334;2023-04-23T03:15:32;943.8;;;5.9;100.0
40013;BME280;37387;42.672;23.334;2023-04-23T03:19:32;943.8;;;6.0;100.0
40013;BME280;37387;42.672;23.334;2023-04-23T03:20:32;943.8;;;5.9;100.0
40013;BME280;37387;42.672;23.334;2023-04-23T03:37:32;943.9;;;6.0;100.0
40013;BME280;37387;42.672;23.334;2023-04-23T03:41:32;944.0;;;6.1;100.0
40013;BME280;37387;42.672;23.334;2023-04-23T03:42:32;944.0;;;6.0;100.0
40013;BME280;37387;42.672;23.334;2023-04-23T03:48:32;944.0;;;6.1;100.0
40013;BME280;37387;42.672;23.334;2023-04-23T03:52:32;943.9;;;6.2;100.0
40013;BME280;37387;42.672;23.334;2023-04-23T03:55:32;944.0;;;6.3;100.0
40013;BME280;37387;42.672;23.334;2023-04-23T03:57:32;944.0;;;6.4;100.0
40013;BME280;37387;42.672;23.334;2023-04-23T03:58:32;944.0;;;6.5;100.0
40013;BME280;37387;42.672;23.334;2023-04-23T04:00:32;944.1;;;6.6;100.0
40013;BME280;37387;42.672;23.334;2023-04-23T04:02:32;944.1;;;6.7;100.0
40013;BME280;37387;42.672;23.334;2023-04-23T04:04:32;944.1;;;6.9;100.0
40013;BME280;37387;42.672;23.334;2023-04-23T04:06:32;944.1;;;7.0;100.0
40013;BME280;37387;42.672;23.334;2023-04-23T04:07:32;944.2;;;6.9;100.0
40013;BME280;37387;42.672;23.334;2023-04-23T04:09:32;944.2;;;7.0;100.0
40013;BME280;37387;42.672;23.334;2023-04-23T04:10:32;944.2;;;7.1;100.0
40013;BME280;37387;42.672;23.334;2023-04-23T04:11:32;944.1;;;7.2;100.0
40013;BME280;37387;42.672;23.334;2023-04-23T04:12:32;944.1;;;7.4;100.0
40013;BME280;37387;42.672;23.334;2023-04-23T04:13:32;944.2;;;7.7;100.0
40013;BME280;37387;42.672;23.334;2023-04-23T04:14:32;944.2;;;7.9;100.0
40013;BME280;37387;42.672;23.334;2023-04-23T04:15:32;944.2;;;8.2;100.0
40013;BME280;37387;42.672;23.334;2023-04-23T04:16:32;944.2;;;8.4;100.0
40013;BME280;37387;42.672;23.334;2023-04-23T04:17:32;944.2;;;8.9;100.0
40013;BME280;37387;42.672;23.334;2023-04-23T04:18:32;944.3;;;9.3;100.0
40013;BME280;37387;42.672;23.334;2023-04-23T04:19:32;944.4;;;9.7;100.0
40013;BME280;37387;42.672;23.334;2023-04-23T04:20:32;944.4;;;9.9;100.0
40013;BME280;37387;42.672;23.334;2023-04-23T04:21:32;944.3;;;10.3;100.0
40013;BME280;37387;42.672;23.334;2023-04-23T04:22:32;944.4;;;10.6;100.0
40013;BME280;37387;42.672;23.334;2023-04-23T04:23:32;944.4;;;10.8;100.0
40013;BME280;37387;42.672;23.334;2023-04-23T04:24:32;944.4;;;11.0;100.0
40013;BME280;37387;42.672;23.334;2023-04-23T04:25:32;944.4;;;10.7;100.0
40013;BME280;37387;42.672;23.334;2023-04-23T04:27:32;944.4;;;11.0;100.0
40013;BME280;37387;42.672;23.334;2023-04-23T04:28:32;944.4;;;11.1;100.0
40013;BME280;37387;42.672;23.334;2023-04-23T04:29:32;944.4;;;10.9;100.0
40013;BME280;37387;42.672;23.334;2023-04-23T04:30:32;944.4;;;11.2;100.0
40013;BME280;37387;42.672;23.334;2023-04-23T04:31:32;944.5;;;11.9;100.0
40013;BME280;37387;42.672;23.334;2023-04-23T04:33:32;944.5;;;12.0;100.0
40013;BME280;37387;42.672;23.334;2023-04-23T04:34:32;944.5;;;12.3;96.7
40013;BME280;37387;42.672;23.334;2023-04-23T04:35:32;944.5;;;12.5;96.7
40013;BME280;37387;42.672;23.334;2023-04-23T04:36:32;944.5;;;13.3;94.9
40013;BME280;37387;42.672;23.334;2023-04-23T04:37:32;944.5;;;13.8;82.2
40013;BME280;37387;42.672;23.334;2023-04-23T04:38:32;944.5;;;13.6;82.2
40013;BME280;37387;42.672;23.334;2023-04-23T04:39:32;944.5;;;14.1;79.0
40013;BME280;37387;42.672;23.334;2023-04-23T04:40:32;944.6;;;14.4;72.9
40013;BME280;37387;42.672;23.334;2023-04-23T04:41:32;944.5;;;13.6;72.5
40013;BME280;37387;42.672;23.334;2023-04-23T04:42:32;944.5;;;12.4;72.5
40013;BME280;37387;42.672;23.334;2023-04-23T04:43:32;944.5;;;12.5;82.0
40013;BME280;37387;42.672;23.334;2023-04-23T04:44:33;944.5;;;12.7;80.1
40013;BME280;37387;42.672;23.334;2023-04-23T04:45:32;944.5;;;13.2;80.1
40013;BME280;37387;42.672;23.334;2023-04-23T04:46:32;944.6;;;11.9;76.7
40013;BME280;37387;42.672;23.334;2023-04-23T04:47:32;944.5;;;12.5;81.6
40013;BME280;37387;42.672;23.334;2023-04-23T04:48:32;944.6;;;11.9;82.3
40013;BME280;37387;42.672;23.334;2023-04-23T04:49:32;944.6;;;12.2;83.5
40013;BME280;37387;42.672;23.334;2023-04-23T04:50:32;944.6;;;13.2;83.4
40013;BME280;37387;42.672;23.334;2023-04-23T04:51:32;944.6;;;12.6;78.2
40013;BME280;37387;42.672;23.334;2023-04-23T04:52:32;944.6;;;13.1;79.7
40013;BME280;37387;42.672;23.334;2023-04-23T04:53:32;944.6;;;13.8;76.7
40013;BME280;37387;42.672;23.334;2023-04-23T04:54:32;944.6;;;13.6;71.7
40013;BME280;37387;42.672;23.334;2023-04-23T04:55:32;944.7;;;13.7;71.7
40013;BME280;37387;42.672;23.334;2023-04-23T04:56:32;944.6;;;12.6;75.2
40013;BME280;37387;42.672;23.334;2023-04-23T04:57:32;944.6;;;13.0;75.2
40013;BME280;37387;42.672;23.334;2023-04-23T04:58:32;944.6;;;13.1;74.7
40013;BME280;37387;42.672;23.334;2023-04-23T04:59:32;944.5;;;12.1;74.0
40013;BME280;37387;42.672;23.334;2023-04-23T05:00:32;944.5;;;12.9;78.0
40013;BME280;37387;42.672;23.334;2023-04-23T05:01:32;944.7;;;13.7;77.2
40013;BME280;37387;42.672;23.334;2023-04-23T05:02:32;944.7;;;14.5;72.6
40013;BME280;37387;42.672;23.334;2023-04-23T05:03:32;944.7;;;15.0;69.4
40013;BME280;37387;42.672;23.334;2023-04-23T05:04:32;944.7;;;15.4;66.3
40013;BME280;37387;42.672;23.334;2023-04-23T05:05:32;944.7;;;15.8;64.2
40013;BME280;37387;42.672;23.334;2023-04-23T05:06:32;944.7;;;16.6;62.7
40013;BME280;37387;42.672;23.334;2023-04-23T05:07:32;944.7;;;16.7;58.6
40013;BME280;37387;42.672;23.334;2023-04-23T05:08:32;944.7;;;17.0;56.9
40013;BME280;37387;42.672;23.334;2023-04-23T05:09:32;944.7;;;17.6;54.8
40013;BME280;37387;42.672;23.334;2023-04-23T05:10:32;944.7;;;18.2;54.8
40013;BME280;37387;42.672;23.334;2023-04-23T05:11:32;944.8;;;18.8;53.0
40013;BME280;37387;42.672;23.334;2023-04-23T05:12:32;944.7;;;18.7;50.7
40013;BME280;37387;42.672;23.334;2023-04-23T05:14:32;944.7;;;18.2;50.7
40013;BME280;37387;42.672;23.334;2023-04-23T05:15:32;944.7;;;18.0;51.5
40013;BME280;37387;42.672;23.334;2023-04-23T05:16:32;944.8;;;18.4;50.8
40013;BME280;37387;42.672;23.334;2023-04-23T05:17:32;944.7;;;18.7;49.6
40013;BME280;37387;42.672;23.334;2023-04-23T05:18:32;944.7;;;19.2;49.6
40013;BME280;37387;42.672;23.334;2023-04-23T05:19:32;944.8;;;18.9;48.6
40013;BME280;37387;42.672;23.334;2023-04-23T05:20:32;944.8;;;18.5;49.5
40013;BME280;37387;42.672;23.334;2023-04-23T05:21:32;944.8;;;17.0;53.2
40013;BME280;37387;42.672;23.334;2023-04-23T05:22:32;944.8;;;17.6;53.4
40013;BME280;37387;42.672;23.334;2023-04-23T05:23:32;944.7;;;17.5;53.0
40013;BME280;37387;42.672;23.334;2023-04-23T05:24:32;944.7;;;18.0;53.0
40013;BME280;37387;42.672;23.334;2023-04-23T05:25:32;944.7;;;18.5;52.4
40013;BME280;37387;42.672;23.334;2023-04-23T05:26:34;944.7;;;18.1;50.7
40013;BME280;37387;42.672;23.334;2023-04-23T05:27:32;944.7;;;17.8;51.3
40013;BME280;37387;42.672;23.334;2023-04-23T05:28:32;944.7;;;18.2;52.2
40013;BME280;37387;42.672;23.334;2023-04-23T05:29:32;944.8;;;18.4;50.3
40013;BME280;37387;42.672;23.334;2023-04-23T05:32:32;944.8;;;17.7;50.5
40013;BME280;37387;42.672;23.334;2023-04-23T05:33:32;944.7;;;17.6;52.2
40013;BME280;37387;42.672;23.334;2023-04-23T05:34:32;944.8;;;17.0;52.7
40013;BME280;37387;42.672;23.334;2023-04-23T05:35:32;944.8;;;17.2;54.3
40013;BME280;37387;42.672;23.334;2023-04-23T05:38:32;944.8;;;17.3;54.0
40013;BME280;37387;42.672;23.334;2023-04-23T05:39:32;944.8;;;16.9;54.0
40013;BME280;37387;42.672;23.334;2023-04-23T05:40:32;944.8;;;16.1;55.1
40013;BME280;37387;42.672;23.334;2023-04-23T05:42:33;944.7;;;15.0;62.9
40013;BME280;37387;42.672;23.334;2023-04-23T05:43:32;944.8;;;14.7;62.9
40013;BME280;37387;42.672;23.334;2023-04-23T05:45:32;944.8;;;15.3;64.2
40013;BME280;37387;42.672;23.334;2023-04-23T05:46:32;944.8;;;16.3;63.2
40013;BME280;37387;42.672;23.334;2023-04-23T05:47:32;944.8;;;16.9;59.9
40013;BME280;37387;42.672;23.334;2023-04-23T05:48:32;944.8;;;17.3;57.3
40013;BME280;37387;42.672;23.334;2023-04-23T05:49:32;944.8;;;17.8;55.8
40013;BME280;37387;42.672;23.334;2023-04-23T05:50:32;944.8;;;15.9;53.6
40013;BME280;37387;42.672;23.334;2023-04-23T05:51:32;944.9;;;16.6;58.0
40013;BME280;37387;42.672;23.334;2023-04-23T05:52:32;944.8;;;15.4;58.0
40013;BME280;37387;42.672;23.334;2023-04-23T05:53:32;944.9;;;16.4;58.6
40013;BME280;37387;42.672;23.334;2023-04-23T05:54:32;944.9;;;16.9;57.2
40013;BME280;37387;42.672;23.334;2023-04-23T05:55:32;944.9;;;17.3;57.2
40013;BME280;37387;42.672;23.334;2023-04-23T05:56:32;944.8;;;16.4;57.0
40013;BME280;37387;42.672;23.334;2023-04-23T05:57:32;944.8;;;17.5;57.0
40013;BME280;37387;42.672;23.334;2023-04-23T05:58:32;944.8;;;18.5;55.1
40013;BME280;37387;42.672;23.334;2023-04-23T05:59:32;944.9;;;18.7;50.7
40013;BME280;37387;42.672;23.334;2023-04-23T06:00:32;944.9;;;18.6;50.7
40013;BME280;37387;42.672;23.334;2023-04-23T06:01:32;944.9;;;18.3;51.0
40013;BME280;37387;42.672;23.334;2023-04-23T06:02:32;944.9;;;19.2;49.4
40013;BME280;37387;42.672;23.334;2023-04-23T06:03:32;944.9;;;19.8;49.4
40013;BME280;37387;42.672;23.334;2023-04-23T06:04:32;945.0;;;19.4;47.3
40013;BME280;37387;42.672;23.334;2023-04-23T06:05:32;945.0;;;19.1;47.3
40013;BME280;37387;42.672;23.334;2023-04-23T06:06:32;944.9;;;18.5;50.0
40013;BME280;37387;42.672;23.334;2023-04-23T06:07:32;944.9;;;18.8;50.0
40013;BME280;37387;42.672;23.334;2023-04-23T06:08:32;944.9;;;18.9;49.5
40013;BME280;37387;42.672;23.334;2023-04-23T06:09:32;944.9;;;19.3;49.1
40013;BME280;37387;42.672;23.334;2023-04-23T06:10:32;944.9;;;19.2;48.5
40013;BME280;37387;42.672;23.334;2023-04-23T06:11:32;944.9;;;19.6;48.6
40013;BME280;37387;42.672;23.334;2023-04-23T06:12:32;944.9;;;19.2;47.5
40013;BME280;37387;42.672;23.334;2023-04-23T06:13:32;944.9;;;18.9;47.8
40013;BME280;37387;42.672;23.334;2023-04-23T06:14:32;944.9;;;19.4;49.2
40013;BME280;37387;42.672;23.334;2023-04-23T06:15:32;944.9;;;19.0;48.2
40013;BME280;37387;42.672;23.334;2023-04-23T06:16:32;944.9;;;19.2;48.8
40013;BME280;37387;42.672;23.334;2023-04-23T06:17:32;944.8;;;18.6;48.3
40013;BME280;37387;42.672;23.334;2023-04-23T06:18:32;944.8;;;18.1;49.3
40013;BME280;37387;42.672;23.334;2023-04-23T06:19:32;944.8;;;19.0;50.7
40013;BME280;37387;42.672;23.334;2023-04-23T06:20:32;944.8;;;19.9;49.6
40013;BME280;37387;42.672;23.334;2023-04-23T06:21:32;944.9;;;20.9;45.4
40013;BME280;37387;42.672;23.334;2023-04-23T06:22:32;944.9;;;21.0;44.3
40013;BME280;37387;42.672;23.334;2023-04-23T06:23:32;944.9;;;20.9;44.7
40013;BME280;37387;42.672;23.334;2023-04-23T06:24:32;944.9;;;21.1;44.7
40013;BME280;37387;42.672;23.334;2023-04-23T06:25:32;944.9;;;20.6;43.9
40013;BME280;37387;42.672;23.334;2023-04-23T06:26:32;944.9;;;19.9;45.0
40013;BME280;37387;42.672;23.334;2023-04-23T06:27:32;944.8;;;19.5;47.4
40013;BME280;37387;42.672;23.334;2023-04-23T06:28:32;944.8;;;19.7;47.4
40013;BME280;37387;42.672;23.334;2023-04-23T06:29:32;944.8;;;20.3;47.8
40013;BME280;37387;42.672;23.334;2023-04-23T06:31:32;944.9;;;19.6;46.3
40013;BME280;37387;42.672;23.334;2023-04-23T06:32:32;944.8;;;18.7;47.2
40013;BME280;37387;42.672;23.334;2023-04-23T06:33:32;944.8;;;18.1;49.7
40013;BME280;37387;42.672;23.334;2023-04-23T06:34:32;944.8;;;16.9;55.8
40013;BME280;37387;42.672;23.334;2023-04-23T06:35:32;944.8;;;16.4;57.5
40013;BME280;37387;42.672;23.334;2023-04-23T06:36:32;944.8;;;15.5;57.5
40013;BME280;37387;42.672;23.334;2023-04-23T06:37:32;944.8;;;16.6;61.6
40013;BME280;37387;42.672;23.334;2023-04-23T06:38:32;944.8;;;16.1;58.7
40013;BME280;37387;42.672;23.334;2023-04-23T06:39:32;944.8;;;16.2;58.7
40013;BME280;37387;42.672;23.334;2023-04-23T06:40:32;944.9;;;16.8;60.6
40013;BME280;37387;42.672;23.334;2023-04-23T06:41:32;944.9;;;16.9;58.2
40013;BME280;37387;42.672;23.334;2023-04-23T06:42:32;944.9;;;17.5;58.2
40013;BME280;37387;42.672;23.334;2023-04-23T06:43:32;944.8;;;17.3;56.2
40013;BME280;37387;42.672;23.334;2023-04-23T06:44:32;944.8;;;18.3;56.2
40013;BME280;37387;42.672;23.334;2023-04-23T06:45:32;944.9;;;19.0;53.5
40013;BME280;37387;42.672;23.334;2023-04-23T06:46:32;944.9;;;19.8;52.6
40013;BME280;37387;42.672;23.334;2023-04-23T06:47:32;944.9;;;19.7;49.1
40013;BME280;37387;42.672;23.334;2023-04-23T06:49:32;944.8;;;19.5;48.8
40013;BME280;37387;42.672;23.334;2023-04-23T06:50:32;944.8;;;20.0;48.8
40013;BME280;37387;42.672;23.334;2023-04-23T06:51:33;944.9;;;20.3;48.4
40013;BME280;37387;42.672;23.334;2023-04-23T06:52:32;944.9;;;21.1;47.4
40013;BME280;37387;42.672;23.334;2023-04-23T06:53:32;944.9;;;21.6;44.2
40013;BME280;37387;42.672;23.334;2023-04-23T06:55:32;944.9;;;22.0;44.2
40013;BME280;37387;42.672;23.334;2023-04-23T06:56:32;944.9;;;22.4;43.8
40013;BME280;37387;42.672;23.334;2023-04-23T06:58:32;944.9;;;21.7;41.9
40013;BME280;37387;42.672;23.334;2023-04-23T06:59:32;944.9;;;21.0;42.5
40013;BME280;37387;42.672;23.334;2023-04-23T07:01:33;944.9;;;21.4;44.7
40013;BME280;37387;42.672;23.334;2023-04-23T07:02:32;944.9;;;21.7;44.1
40013;BME280;37387;42.672;23.334;2023-04-23T07:03:32;944.8;;;20.9;43.4
40013;BME280;37387;42.672;23.334;2023-04-23T07:04:32;944.8;;;21.4;44.2
40013;BME280;37387;42.672;23.334;2023-04-23T07:06:32;944.8;;;21.2;44.3
40013;BME280;37387;42.672;23.334;2023-04-23T07:07:32;944.8;;;21.1;44.3
40013;BME280;37387;42.672;23.334;2023-04-23T07:08:32;944.9;;;20.6;44.5
40013;BME280;37387;42.672;23.334;2023-04-23T07:09:32;944.9;;;20.8;45.7
40013;BME280;37387;42.672;23.334;2023-04-23T07:10:32;944.9;;;21.2;45.3
40013;BME280;37387;42.672;23.334;2023-04-23T07:11:32;944.9;;;21.6;43.8
40013;BME280;37387;42.672;23.334;2023-04-23T07:12:32;944.9;;;21.2;43.8
40013;BME280;37387;42.672;23.334;2023-04-23T07:13:32;944.9;;;20.7;44.3
40013;BME280;37387;42.672;23.334;2023-04-23T07:14:32;944.8;;;20.5;44.7
40013;BME280;37387;42.672;23.334;2023-04-23T07:16:32;944.9;;;20.9;46.3
40013;BME280;37387;42.672;23.334;2023-04-23T07:17:32;944.8;;;19.5;45.4
40013;BME280;37387;42.672;23.334;2023-04-23T07:18:32;944.8;;;20.5;47.5
40013;BME280;37387;42.672;23.334;2023-04-23T07:19:32;944.8;;;21.0;46.8
40013;BME280;37387;42.672;23.334;2023-04-23T07:20:32;944.8;;;20.1;45.7
40013;BME280;37387;42.672;23.334;2023-04-23T07:21:32;944.8;;;20.2;47.2
40013;BME280;37387;42.672;23.334;2023-04-23T07:22:32;944.8;;;19.2;46.9
40013;BME280;37387;42.672;23.334;2023-04-23T07:23:32;944.8;;;19.0;49.4
40013;BME280;37387;42.672;23.334;2023-04-23T07:24:32;944.8;;;19.9;49.6
40013;BME280;37387;42.672;23.334;2023-04-23T07:25:32;944.8;;;21.0;48.2
40013;BME280;37387;42.672;23.334;2023-04-23T07:26:32;944.8;;;21.1;45.7
40013;BME280;37387;42.672;23.334;2023-04-23T07:27:32;944.8;;;22.1;45.4
40013;BME280;37387;42.672;23.334;2023-04-23T07:28:33;944.8;;;22.8;41.5
40013;BME280;37387;42.672;23.334;2023-04-23T07:29:32;944.7;;;22.4;41.5
40013;BME280;37387;42.672;23.334;2023-04-23T07:30:32;944.8;;;22.9;41.5
40013;BME280;37387;42.672;23.334;2023-04-23T07:31:32;944.7;;;21.9;41.5
40013;BME280;37387;42.672;23.334;2023-04-23T07:32:32;944.7;;;21.4;42.6
40013;BME280;37387;42.672;23.334;2023-04-23T07:33:32;944.8;;;20.3;44.2
40013;BME280;37387;42.672;23.334;2023-04-23T07:34:32;944.8;;;19.9;46.0
40013;BME280;37387;42.672;23.334;2023-04-23T07:35:32;944.8;;;20.6;47.2
40013;BME280;37387;42.672;23.334;2023-04-23T07:36:32;944.8;;;20.9;46.4
40013;BME280;37387;42.672;23.334;2023-04-23T07:37:32;944.7;;;21.5;45.7
40013;BME280;37387;42.672;23.334;2023-04-23T07:38:32;944.8;;;20.1;44.1
40013;BME280;37387;42.672;23.334;2023-04-23T07:39:32;944.8;;;21.5;47.5
40013;BME280;37387;42.672;23.334;2023-04-23T07:40:32;944.8;;;21.1;44.8
40013;BME280;37387;42.672;23.334;2023-04-23T07:41:32;944.8;;;20.9;44.5
40013;BME280;37387;42.672;23.334;2023-04-23T07:42:32;944.8;;;20.5;44.6
40013;BME280;37387;42.672;23.334;2023-04-23T07:43:32;944.7;;;20.9;45.5
40013;BME280;37387;42.672;23.334;2023-04-23T07:44:32;944.8;;;20.7;45.5
40013;BME280;37387;42.672;23.334;2023-04-23T07:46:32;944.8;;;19.6;45.7
40013;BME280;37387;42.672;23.334;2023-04-23T07:47:32;944.7;;;19.0;48.0
40013;BME280;37387;42.672;23.334;2023-04-23T07:48:32;944.8;;;20.2;47.5
40013;BME280;37387;42.672;23.334;2023-04-23T07:49:32;944.8;;;20.9;47.5
40013;BME280;37387;42.672;23.334;2023-04-23T07:50:32;944.8;;;21.5;45.7
40013;BME280;37387;42.672;23.334;2023-04-23T07:51:32;944.8;;;21.3;44.4
40013;BME280;37387;42.672;23.334;2023-04-23T07:52:32;944.7;;;20.5;44.1
40013;BME280;37387;42.672;23.334;2023-04-23T07:53:32;944.7;;;20.4;46.0
40013;BME280;37387;42.672;23.334;2023-04-23T07:55:32;944.7;;;19.7;46.5
40013;BME280;37387;42.672;23.334;2023-04-23T07:56:32;944.7;;;19.4;47.9
40013;BME280;37387;42.672;23.334;2023-04-23T07:57:32;944.7;;;19.7;49.1
40013;BME280;37387;42.672;23.334;2023-04-23T08:00:32;944.7;;;19.2;49.2
40013;BME280;37387;42.672;23.334;2023-04-23T08:01:32;944.7;;;19.4;50.9
40013;BME280;37387;42.672;23.334;2023-04-23T08:02:32;944.7;;;19.0;49.8
40013;BME280;37387;42.672;23.334;2023-04-23T08:03:32;944.7;;;20.4;51.8
40013;BME280;37387;42.672;23.334;2023-04-23T08:04:32;944.8;;;21.4;48.3
40013;BME280;37387;42.672;23.334;2023-04-23T08:05:32;944.8;;;21.2;45.6
40013;BME280;37387;42.672;23.334;2023-04-23T08:06:32;944.8;;;21.5;45.4
40013;BME280;37387;42.672;23.334;2023-04-23T08:07:32;944.8;;;22.3;45.5
40013;BME280;37387;42.672;23.334;2023-04-23T08:08:32;944.7;;;22.6;42.6
40013;BME280;37387;42.672;23.334;2023-04-23T08:09:32;944.7;;;22.2;42.6
40013;BME280;37387;42.672;23.334;2023-04-23T08:10:32;944.7;;;22.4;43.3
40013;BME280;37387;42.672;23.334;2023-04-23T08:11:32;944.7;;;22.1;42.7
40013;BME280;37387;42.672;23.334;2023-04-23T08:12:32;944.7;;;22.7;43.3
40013;BME280;37387;42.672;23.334;2023-04-23T08:13:32;944.7;;;22.5;42.0
40013;BME280;37387;42.672;23.334;2023-04-23T08:14:32;944.7;;;21.5;42.1
40013;BME280;37387;42.672;23.334;2023-04-23T08:15:32;944.7;;;21.0;43.4
40013;BME280;37387;42.672;23.334;2023-04-23T08:16:32;944.7;;;20.6;44.5
40013;BME280;37387;42.672;23.334;2023-04-23T08:17:32;944.7;;;20.4;45.4
40013;BME280;37387;42.672;23.334;2023-04-23T08:18:32;944.7;;;21.3;46.7
40013;BME280;37387;42.672;23.334;2023-04-23T08:19:32;944.7;;;21.4;44.1
40013;BME280;37387;42.672;23.334;2023-04-23T08:20:32;944.7;;;19.8;44.1
40013;BME280;37387;42.672;23.334;2023-04-23T08:21:32;944.7;;;20.0;46.5
40013;BME280;37387;42.672;23.334;2023-04-23T08:22:32;944.7;;;20.9;47.1
40013;BME280;37387;42.672;23.334;2023-04-23T08:23:32;944.7;;;21.4;45.3
40013;BME280;37387;42.672;23.334;2023-04-23T08:24:32;944.7;;;21.1;44.1
40013;BME280;37387;42.672;23.334;2023-04-23T08:25:32;944.7;;;21.0;44.1
40013;BME280;37387;42.672;23.334;2023-04-23T08:27:32;944.7;;;20.1;44.6
40013;BME280;37387;42.672;23.334;2023-04-23T08:28:32;944.7;;;19.7;46.7
40013;BME280;37387;42.672;23.334;2023-04-23T08:29:32;944.6;;;19.5;47.6
40013;BME280;37387;42.672;23.334;2023-04-23T08:30:32;944.6;;;18.7;48.4
40013;BME280;37387;42.672;23.334;2023-04-23T08:32:32;944.6;;;17.9;50.8
40013;BME280;37387;42.672;23.334;2023-04-23T08:33:32;944.6;;;18.5;52.6
40013;BME280;37387;42.672;23.334;2023-04-23T08:34:32;944.5;;;18.8;51.6
40013;BME280;37387;42.672;23.334;2023-04-23T08:35:32;944.5;;;19.6;51.5
40013;BME280;37387;42.672;23.334;2023-04-23T08:36:32;944.5;;;19.9;49.7
40013;BME280;37387;42.672;23.334;2023-04-23T08:37:32;944.6;;;21.0;48.0
40013;BME280;37387;42.672;23.334;2023-04-23T08:38:32;944.6;;;21.6;45.7
40013;BME280;37387;42.672;23.334;2023-04-23T08:39:32;944.5;;;21.7;44.5
40013;BME280;37387;42.672;23.334;2023-04-23T08:40:32;944.5;;;21.6;43.5
40013;BME280;37387;42.672;23.334;2023-04-23T08:41:33;944.5;;;20.8;42.9
40013;BME280;37387;42.672;23.334;2023-04-23T08:42:36;944.4;;;18.8;48.1
40013;BME280;37387;42.672;23.334;2023-04-23T08:43:36;944.4;;;18.9;49.9
40013;BME280;37387;42.672;23.334;2023-04-23T08:44:32;944.4;;;19.6;49.9
40013;BME280;37387;42.672;23.334;2023-04-23T08:46:32;944.5;;;20.3;47.4
40013;BME280;37387;42.672;23.334;2023-04-23T08:47:32;944.5;;;21.4;45.0
40013;BME280;37387;42.672;23.334;2023-04-23T08:48:32;944.4;;;21.6;43.3
40013;BME280;37387;42.672;23.334;2023-04-23T08:49:32;944.4;;;21.3;43.3
40013;BME280;37387;42.672;23.334;2023-04-23T08:50:32;944.4;;;21.5;44.4
40013;BME280;37387;42.672;23.334;2023-04-23T08:51:32;944.4;;;22.1;42.7
40013;BME280;37387;42.672;23.334;2023-04-23T08:53:32;944.4;;;21.5;42.4
40013;BME280;37387;42.672;23.334;2023-04-23T08:54:32;944.4;;;18.7;42.7
40013;BME280;37387;42.672;23.334;2023-04-23T08:55:34;944.4;;;18.8;48.5
40013;BME280;37387;42.672;23.334;2023-04-23T08:56:32;944.4;;;19.0;49.7
40013;BME280;37387;42.672;23.334;2023-04-23T08:57:32;944.4;;;19.6;49.7
40013;BME280;37387;42.672;23.334;2023-04-23T08:58:32;944.3;;;19.5;49.1
40013;BME280;37387;42.672;23.334;2023-04-23T08:59:32;944.4;;;20.1;48.7
40013;BME280;37387;42.672;23.334;2023-04-23T09:00:32;944.4;;;20.5;47.6
40013;BME280;37387;42.672;23.334;2023-04-23T09:02:32;944.3;;;19.6;47.4
40013;BME280;37387;42.672;23.334;2023-04-23T09:03:32;944.3;;;19.5;47.4
40013;BME280;37387;42.672;23.334;2023-04-23T09:04:32;944.3;;;19.1;48.3
40013;BME280;37387;42.672;23.334;2023-04-23T09:06:32;944.3;;;18.8;49.9
40013;BME280;37387;42.672;23.334;2023-04-23T09:07:32;944.3;;;18.9;50.4
40013;BME280;37387;42.672;23.334;2023-04-23T09:08:32;944.3;;;19.1;49.4
40013;BME280;37387;42.672;23.334;2023-04-23T09:09:32;944.3;;;19.3;49.2
40013;BME280;37387;42.672;23.334;2023-04-23T09:10:32;944.3;;;19.6;47.8
40013;BME280;37387;42.672;23.334;2023-04-23T09:11:32;944.3;;;19.9;47.8
40013;BME280;37387;42.672;23.334;2023-04-23T09:12:32;944.3;;;19.5;46.7
40013;BME280;37387;42.672;23.334;2023-04-23T09:13:32;944.3;;;19.1;47.4
40013;BME280;37387;42.672;23.334;2023-04-23T09:14:32;944.2;;;18.8;49.3
40013;BME280;37387;42.672;23.334;2023-04-23T09:15:32;944.2;;;19.2;49.3
40013;BME280;37387;42.672;23.334;2023-04-23T09:16:32;944.2;;;19.7;48.6
40013;BME280;37387;42.672;23.334;2023-04-23T09:17:32;944.3;;;20.1;47.5
40013;BME280;37387;42.672;23.334;2023-04-23T09:18:32;944.3;;;19.8;46.2
40013;BME280;37387;42.672;23.334;2023-04-23T09:19:32;944.2;;;19.5;46.4